Time;durP1;ratioP1;P1;durP2;ratioP2;P2;SDS_P1;SDS_P2;PMS_P1;PMS_P2;Temp;Humidity;BMP_temperature;BMP_pressure;BME280_temperature;BME280_humidity;BME280_pressure;Samples;Min_cycle;Max_cycle;Signal;HPM_P1;HPM_P2
2022/01/30 00:01:32;;;;;;;0.60;0.60;;;6.20;99.90;;;;;;4937247;28;20040;-50
2022/01/30 00:03:58;;;;;;;0.70;0.70;;;6.10;99.90;;;;;;4943596;28;21072;-50
2022/01/30 00:06:23;;;;;;;0.80;0.80;;;6.20;99.90;;;;;;4938908;28;20540;-51
2022/01/30 00:08:49;;;;;;;0.70;0.70;;;6.20;99.90;;;;;;4936203;28;20428;-51
2022/01/30 00:11:20;;;;;;;0.88;0.88;;;6.20;99.90;;;;;;4943591;28;20527;-50
2022/01/30 00:13:46;;;;;;;0.50;0.50;;;6.30;99.90;;;;;;4939115;28;20039;-51
2022/01/30 00:16:15;;;;;;;0.70;0.70;;;6.30;99.90;;;;;;4940962;28;20035;-51
2022/01/30 00:24:05;;;;;;;0.68;0.68;;;6.40;99.90;;;;;;4937948;28;20503;-50
2022/01/30 00:26:33;;;;;;;0.90;0.90;;;6.30;99.90;;;;;;4939442;28;20151;-50
2022/01/30 00:28:59;;;;;;;;;;;6.30;99.90;;;;;;4940510;28;20062;-50
2022/01/30 00:31:26;;;;;;;0.60;0.60;;;6.40;99.90;;;;;;4935521;28;20356;-53
2022/01/30 00:33:53;;;;;;;0.52;0.52;;;6.40;99.90;;;;;;4944251;28;20024;-50
2022/01/30 00:36:18;;;;;;;0.60;0.60;;;6.40;99.90;;;;;;4938186;28;20062;-49
2022/01/30 00:38:44;;;;;;;0.60;0.60;;;6.40;99.90;;;;;;4937975;28;20031;-49
2022/01/30 00:41:10;;;;;;;0.60;0.60;;;6.50;99.90;;;;;;4938622;28;20074;-50
2022/01/30 00:43:35;;;;;;;0.50;0.50;;;6.50;99.90;;;;;;4939325;28;20034;-50
2022/01/30 00:46:01;;;;;;;0.50;0.50;;;6.50;99.90;;;;;;4941781;28;20031;-52
2022/01/30 00:48:27;;;;;;;0.45;0.45;;;6.50;99.90;;;;;;4936899;28;20051;-50
2022/01/30 00:50:52;;;;;;;0.50;0.50;;;6.50;99.90;;;;;;4940394;28;20031;-50
2022/01/30 00:53:18;;;;;;;0.57;0.57;;;6.50;99.90;;;;;;4936408;28;20027;-53
2022/01/30 00:55:44;;;;;;;0.75;0.75;;;6.50;99.90;;;;;;4939107;28;20033;-51
2022/01/30 00:58:10;;;;;;;0.50;0.50;;;6.50;99.90;;;;;;4941117;28;20031;-51
2022/01/30 01:00:36;;;;;;;0.50;0.50;;;6.50;99.90;;;;;;4943300;28;20395;-50
2022/01/30 01:03:02;;;;;;;0.50;0.50;;;6.50;99.90;;;;;;4942176;28;20027;-52
2022/01/30 01:05:30;;;;;;;0.50;0.50;;;6.50;99.90;;;;;;4942951;28;20130;-50
2022/01/30 01:07:58;;;;;;;0.50;0.50;;;6.50;99.90;;;;;;4942251;28;20523;-50
2022/01/30 01:23:44;;;;;;;0.57;0.57;;;6.50;99.90;;;;;;4939648;28;20126;-50
2022/01/30 01:26:11;;;;;;;0.57;0.57;;;6.40;99.90;;;;;;4945348;28;20068;-50
2022/01/30 01:28:37;;;;;;;0.55;0.55;;;6.40;99.90;;;;;;4940635;28;20118;-50
2022/01/30 01:31:04;;;;;;;0.40;0.40;;;6.40;99.90;;;;;;4939344;28;20044;-50
2022/01/30 01:33:53;;;;;;;0.82;0.82;;;6.50;99.90;;;;;;4937221;28;20039;-50
2022/01/30 01:36:15;;;;;;;0.60;0.60;;;6.50;99.90;;;;;;4942767;28;20118;-50
2022/01/30 01:38:41;;;;;;;0.50;0.50;;;6.50;99.90;;;;;;4941742;28;20106;-51
2022/01/30 01:41:06;;;;;;;0.60;0.60;;;6.50;99.90;;;;;;4940206;28;20039;-50
2022/01/30 01:43:34;;;;;;;0.80;0.80;;;6.50;99.90;;;;;;4940699;28;20287;-51
2022/01/30 01:46:00;;;;;;;0.70;0.70;;;6.40;99.90;;;;;;4942723;28;20027;-51
2022/01/30 01:48:26;;;;;;;0.63;0.63;;;6.50;99.90;;;;;;4940857;28;20051;-51
2022/01/30 01:50:55;;;;;;;0.70;0.70;;;6.40;99.90;;;;;;4941925;28;20430;-51
2022/01/30 01:53:24;;;;;;;0.60;0.57;;;6.40;99.90;;;;;;4937255;28;22507;-51
2022/01/30 01:55:51;;;;;;;0.60;0.60;;;6.40;99.90;;;;;;4943577;28;20031;-50
2022/01/30 01:58:17;;;;;;;0.50;0.50;;;6.40;99.90;;;;;;4939581;28;20502;-50
2022/01/30 02:00:43;;;;;;;0.68;0.68;;;6.40;99.90;;;;;;4944913;28;20039;-49
2022/01/30 02:03:09;;;;;;;0.73;0.73;;;6.40;99.90;;;;;;4947693;28;20033;-48
2022/01/30 02:05:36;;;;;;;0.50;0.50;;;6.40;99.90;;;;;;4947048;28;20031;-49
2022/01/30 02:27:32;;;;;;;0.50;0.50;;;6.30;99.90;;;;;;4942536;28;20035;-50
2022/01/30 02:29:59;;;;;;;0.60;0.60;;;6.30;99.90;;;;;;4952121;28;20038;-49
2022/01/30 02:32:25;;;;;;;0.50;0.50;;;6.30;99.90;;;;;;4947327;28;20043;-49
2022/01/30 02:34:51;;;;;;;0.85;0.85;;;6.30;99.90;;;;;;4946732;28;20031;-49
2022/01/30 02:37:18;;;;;;;0.70;0.70;;;6.30;99.90;;;;;;4952334;28;20031;-49
2022/01/30 02:39:43;;;;;;;0.60;0.60;;;6.30;99.90;;;;;;4942922;28;20031;-49
2022/01/30 02:42:14;;;;;;;0.70;0.70;;;6.30;99.90;;;;;;4948307;28;20035;-49
2022/01/30 02:44:47;;;;;;;0.63;0.63;;;6.30;99.90;;;;;;4947292;28;20039;-49
2022/01/30 02:47:24;;;;;;;0.68;0.68;;;6.30;99.90;;;;;;4947168;28;20061;-49
2022/01/30 02:52:36;;;;;;;0.55;0.55;;;6.20;99.90;;;;;;4946706;28;20087;-49
2022/01/30 02:55:04;;;;;;;0.60;0.60;;;6.20;99.90;;;;;;4945149;28;20031;-49
2022/01/30 02:57:29;;;;;;;0.70;0.70;;;6.20;99.90;;;;;;4947649;28;20027;-51
2022/01/30 02:59:55;;;;;;;0.70;0.70;;;6.20;99.90;;;;;;4948005;28;20645;-49
2022/01/30 03:02:21;;;;;;;0.73;0.73;;;6.10;99.90;;;;;;4939725;28;20044;-49
2022/01/30 03:04:47;;;;;;;0.80;0.80;;;6.10;99.90;;;;;;4947922;28;20905;-49
2022/01/30 03:07:13;;;;;;;0.80;0.80;;;6.10;99.90;;;;;;4944071;28;20392;-49
2022/01/30 03:09:38;;;;;;;0.70;0.70;;;6.10;99.90;;;;;;4946357;28;20484;-49
2022/01/30 03:12:05;;;;;;;0.77;0.77;;;6.10;99.90;;;;;;4947990;28;20039;-49
2022/01/30 03:14:31;;;;;;;0.90;0.90;;;6.10;99.90;;;;;;4941933;28;20138;-49
2022/01/30 03:16:57;;;;;;;0.80;0.80;;;6.10;99.90;;;;;;4948855;28;20034;-49
2022/01/30 03:19:22;;;;;;;0.68;0.68;;;6.20;99.90;;;;;;4951684;28;20028;-49
2022/01/30 03:21:48;;;;;;;1.90;0.95;;;6.20;99.90;;;;;;4945655;28;20031;-49
2022/01/30 03:24:14;;;;;;;0.57;0.57;;;6.20;99.90;;;;;;4947291;28;20046;-49
2022/01/30 03:26:41;;;;;;;0.60;0.60;;;6.20;99.90;;;;;;4945475;28;20060;-48
2022/01/30 03:29:08;;;;;;;0.70;0.70;;;6.20;99.90;;;;;;4946244;28;20114;-49
2022/01/30 03:31:39;;;;;;;0.60;0.60;;;6.20;99.90;;;;;;4948273;28;20370;-48
2022/01/30 03:34:08;;;;;;;0.80;0.80;;;6.10;99.90;;;;;;4945807;28;20701;-48
2022/01/30 03:36:34;;;;;;;0.70;0.70;;;6.10;99.90;;;;;;4947782;28;20031;-49
2022/01/30 03:39:00;;;;;;;0.70;0.70;;;6.00;99.90;;;;;;4946832;28;20024;-49
2022/01/30 03:41:26;;;;;;;0.70;0.70;;;6.00;99.90;;;;;;4946418;28;20035;-51
2022/01/30 03:43:52;;;;;;;0.70;0.70;;;6.00;99.90;;;;;;4943960;28;20033;-49
2022/01/30 03:46:19;;;;;;;0.70;0.70;;;6.00;99.90;;;;;;4946269;28;20479;-49
2022/01/30 03:48:45;;;;;;;0.82;0.82;;;5.90;99.90;;;;;;4946548;28;20062;-49
2022/01/30 03:51:11;;;;;;;0.70;0.70;;;5.90;99.90;;;;;;4946418;28;20504;-49
2022/01/30 03:53:37;;;;;;;1.05;0.98;;;5.90;99.90;;;;;;4943468;28;20032;-50
2022/01/30 03:56:04;;;;;;;0.63;0.60;;;6.00;99.90;;;;;;4943094;28;20436;-49
2022/01/30 03:58:31;;;;;;;0.63;0.63;;;5.90;99.90;;;;;;4947689;28;20031;-48
2022/01/30 04:00:57;;;;;;;1.48;0.80;;;5.90;99.90;;;;;;4944011;28;20034;-49
2022/01/30 04:03:23;;;;;;;1.45;0.95;;;6.00;99.90;;;;;;4943914;28;20035;-49
2022/01/30 04:05:48;;;;;;;0.77;0.77;;;6.00;99.90;;;;;;4943200;28;20030;-50
2022/01/30 04:08:14;;;;;;;1.10;1.10;;;6.00;99.90;;;;;;4944546;28;20034;-48
2022/01/30 04:10:40;;;;;;;0.85;0.70;;;6.00;99.90;;;;;;4953094;28;20034;-49
2022/01/30 04:13:06;;;;;;;1.95;0.80;;;6.00;99.90;;;;;;4946182;28;20118;-48
2022/01/30 04:15:32;;;;;;;1.02;0.95;;;5.90;99.90;;;;;;4939968;28;20035;-49
2022/01/30 04:17:59;;;;;;;0.73;0.73;;;5.90;99.90;;;;;;4947371;28;20023;-49
2022/01/30 04:20:25;;;;;;;0.82;0.82;;;5.90;99.90;;;;;;4944381;28;20035;-49
2022/01/30 04:22:51;;;;;;;0.70;0.70;;;5.80;99.90;;;;;;4942088;28;20046;-48
2022/01/30 04:25:17;;;;;;;0.70;0.70;;;5.80;99.90;;;;;;4945566;28;20046;-48
2022/01/30 04:27:42;;;;;;;0.60;0.60;;;5.80;99.90;;;;;;4946185;28;20023;-49
2022/01/30 04:30:10;;;;;;;0.73;0.73;;;5.80;99.90;;;;;;4942358;28;20110;-49
2022/01/30 04:32:41;;;;;;;0.73;0.73;;;5.70;99.90;;;;;;4939376;28;20103;-49
2022/01/30 04:35:17;;;;;;;0.98;0.70;;;5.70;99.90;;;;;;4941729;28;20118;-50
2022/01/30 04:57:03;;;;;;;0.70;0.70;;;5.70;99.90;;;;;;4946054;28;20771;-48
2022/01/30 05:02:39;;;;;;;0.77;0.77;;;5.70;99.90;;;;;;4944427;28;20122;-49
2022/01/30 05:05:20;;;;;;;0.93;0.85;;;5.70;99.90;;;;;;4937927;28;20058;-48
2022/01/30 05:07:40;;;;;;;0.70;0.70;;;5.70;99.90;;;;;;4944823;28;20039;-48
2022/01/30 05:10:07;;;;;;;0.60;0.60;;;5.60;99.90;;;;;;4947535;28;20061;-48
2022/01/30 05:12:43;;;;;;;0.82;0.82;;;5.60;99.90;;;;;;4946628;28;20030;-49
2022/01/30 05:15:09;;;;;;;2.63;0.80;;;5.60;99.90;;;;;;4944318;28;20062;-49
2022/01/30 05:17:34;;;;;;;0.70;0.70;;;5.60;99.90;;;;;;4945456;28;20126;-48
2022/01/30 05:20:02;;;;;;;0.68;0.68;;;5.60;99.90;;;;;;4943109;28;20232;-49
2022/01/30 05:22:28;;;;;;;0.63;0.63;;;5.60;99.90;;;;;;4942848;28;20039;-49
2022/01/30 05:24:54;;;;;;;0.70;0.70;;;5.60;99.90;;;;;;4945485;28;20829;-49
2022/01/30 05:27:20;;;;;;;1.05;1.05;;;5.60;99.90;;;;;;4943173;28;20038;-48
2022/01/30 05:29:46;;;;;;;0.82;0.77;;;5.60;99.90;;;;;;4947268;28;20031;-50
2022/01/30 05:32:12;;;;;;;0.70;0.70;;;5.60;99.90;;;;;;4944869;28;20096;-49
2022/01/30 05:34:38;;;;;;;0.75;0.75;;;5.60;99.90;;;;;;4939594;28;20043;-50
2022/01/30 05:37:08;;;;;;;0.73;0.60;;;5.60;99.90;;;;;;4946650;28;20030;-49
2022/01/30 05:39:34;;;;;;;0.73;0.73;;;5.60;99.90;;;;;;4950910;28;20035;-49
2022/01/30 05:42:00;;;;;;;0.63;0.63;;;5.60;99.90;;;;;;4948351;28;20047;-49
2022/01/30 05:44:40;;;;;;;0.70;0.70;;;5.50;99.90;;;;;;4954161;28;20031;-49
2022/01/30 05:47:11;;;;;;;0.63;0.63;;;5.50;99.90;;;;;;4946677;28;20066;-49
2022/01/30 05:49:37;;;;;;;1.08;0.77;;;5.50;99.90;;;;;;4947459;28;20051;-49
2022/01/30 05:52:03;;;;;;;0.85;0.77;;;5.50;99.90;;;;;;4945131;28;20042;-48
2022/01/30 05:54:29;;;;;;;1.17;0.70;;;5.50;99.90;;;;;;4949334;28;20042;-48
2022/01/30 05:56:54;;;;;;;0.60;0.60;;;5.50;99.90;;;;;;4945246;28;20503;-49
2022/01/30 05:59:20;;;;;;;1.25;0.70;;;5.50;99.90;;;;;;4946342;28;20117;-49
2022/01/30 06:01:46;;;;;;;0.70;0.70;;;5.50;99.90;;;;;;4946494;28;20058;-48
2022/01/30 06:04:11;;;;;;;1.17;0.75;;;5.50;99.90;;;;;;4944654;28;20110;-48
2022/01/30 06:06:37;;;;;;;0.65;0.65;;;5.50;99.90;;;;;;4946311;28;20043;-48
2022/01/30 06:09:18;;;;;;;0.80;0.80;;;5.50;99.90;;;;;;4945876;28;20035;-49
2022/01/30 06:11:49;;;;;;;0.60;0.60;;;5.50;99.90;;;;;;4947115;28;20119;-49
2022/01/30 06:14:22;;;;;;;0.80;0.80;;;5.40;99.90;;;;;;4945993;28;20055;-48
2022/01/30 06:16:49;;;;;;;0.80;0.80;;;5.40;99.90;;;;;;4946164;28;20034;-50
2022/01/30 06:19:18;;;;;;;0.60;0.60;;;5.40;99.90;;;;;;4948618;28;20125;-48
2022/01/30 06:21:44;;;;;;;0.90;0.90;;;5.40;99.90;;;;;;4944790;28;20039;-48
2022/01/30 06:24:10;;;;;;;0.65;0.65;;;5.40;99.90;;;;;;4945115;28;20564;-49
2022/01/30 06:26:35;;;;;;;0.85;0.80;;;5.40;99.90;;;;;;4946515;28;20062;-49
2022/01/30 06:29:01;;;;;;;1.73;0.90;;;5.40;99.90;;;;;;4941756;28;20138;-49
2022/01/30 06:31:27;;;;;;;0.70;0.70;;;5.40;99.90;;;;;;4944665;28;20058;-48
2022/01/30 06:33:53;;;;;;;1.17;0.93;;;5.40;99.90;;;;;;4945188;28;20043;-49
2022/01/30 06:36:18;;;;;;;1.75;0.80;;;5.40;99.90;;;;;;4944826;28;20054;-49
2022/01/30 06:38:44;;;;;;;0.70;0.70;;;5.40;99.90;;;;;;4943962;28;20024;-49
2022/01/30 06:41:10;;;;;;;0.70;0.70;;;5.40;99.90;;;;;;4944062;28;20031;-49
2022/01/30 06:43:36;;;;;;;0.82;0.82;;;5.30;99.90;;;;;;4947280;28;20597;-49
2022/01/30 06:46:03;;;;;;;0.70;0.70;;;5.30;99.90;;;;;;4945636;28;20485;-51
2022/01/30 06:48:29;;;;;;;0.60;0.60;;;5.40;99.90;;;;;;4946094;28;20587;-49
2022/01/30 06:50:54;;;;;;;0.77;0.77;;;5.40;99.90;;;;;;4945183;28;20042;-49
2022/01/30 06:53:20;;;;;;;0.65;0.65;;;5.40;99.90;;;;;;4945345;28;20070;-49
2022/01/30 06:55:46;;;;;;;1.27;0.90;;;5.40;99.90;;;;;;4947321;28;20043;-49
2022/01/30 06:58:12;;;;;;;0.75;0.75;;;5.30;99.90;;;;;;4944662;28;20365;-49
2022/01/30 07:00:38;;;;;;;0.60;0.60;;;5.30;99.90;;;;;;4942635;28;20115;-49
2022/01/30 07:03:04;;;;;;;0.77;0.77;;;5.30;99.90;;;;;;4942332;28;20039;-49
2022/01/30 07:05:30;;;;;;;0.70;0.70;;;5.20;99.90;;;;;;4947900;28;20419;-49
2022/01/30 07:07:56;;;;;;;1.88;0.70;;;5.20;99.90;;;;;;4945838;28;20031;-49
2022/01/30 07:10:21;;;;;;;1.00;1.00;;;5.20;99.90;;;;;;4944991;28;20043;-49
2022/01/30 07:12:47;;;;;;;0.77;0.77;;;5.20;99.90;;;;;;4945305;28;20807;-49
2022/01/30 07:15:14;;;;;;;1.90;0.80;;;5.20;99.90;;;;;;4944302;28;20523;-50
2022/01/30 07:17:40;;;;;;;1.17;0.85;;;5.20;99.90;;;;;;4942648;28;20140;-49
2022/01/30 07:20:06;;;;;;;1.55;0.77;;;5.20;99.90;;;;;;4941112;28;20482;-49
2022/01/30 07:22:32;;;;;;;0.85;0.85;;;5.20;99.90;;;;;;4945370;28;20015;-49
2022/01/30 07:24:58;;;;;;;1.05;1.05;;;5.20;99.90;;;;;;4949060;28;20086;-49
2022/01/30 07:27:24;;;;;;;0.85;0.85;;;5.30;99.90;;;;;;4943393;28;20499;-49
2022/01/30 07:29:49;;;;;;;1.58;1.30;;;5.30;99.90;;;;;;4948840;28;20070;-49
2022/01/30 07:32:15;;;;;;;0.90;0.90;;;5.30;99.90;;;;;;4944161;28;20035;-49
2022/01/30 07:34:42;;;;;;;2.33;1.23;;;5.30;99.90;;;;;;4943998;28;20035;-49
2022/01/30 07:37:09;;;;;;;3.85;1.20;;;5.30;99.90;;;;;;4941843;28;20429;-49
2022/01/30 07:39:36;;;;;;;2.17;1.17;;;5.30;99.90;;;;;;4945510;28;20398;-49
2022/01/30 07:42:03;;;;;;;2.75;1.27;;;5.40;99.90;;;;;;4944372;28;20055;-49
2022/01/30 07:44:28;;;;;;;4.78;1.30;;;5.40;99.90;;;;;;4947225;28;20043;-49
2022/01/30 07:46:54;;;;;;;1.20;1.10;;;5.40;99.90;;;;;;4944113;28;20124;-48
2022/01/30 07:49:20;;;;;;;3.28;1.10;;;5.40;99.90;;;;;;4946995;28;20749;-48
2022/01/30 07:51:46;;;;;;;1.50;1.10;;;5.50;99.90;;;;;;4945612;28;20035;-49
2022/01/30 07:54:12;;;;;;;1.23;1.13;;;5.50;99.90;;;;;;4942953;28;20031;-49
2022/01/30 07:56:37;;;;;;;1.58;1.17;;;5.50;99.90;;;;;;4943772;28;20027;-49
2022/01/30 07:59:03;;;;;;;2.15;1.55;;;5.50;99.90;;;;;;4940886;28;20436;-49
2022/01/30 08:01:29;;;;;;;1.48;1.17;;;5.50;99.90;;;;;;4941254;28;20039;-49
2022/01/30 08:03:54;;;;;;;2.05;1.27;;;5.50;99.90;;;;;;4938580;28;20094;-48
2022/01/30 08:06:20;;;;;;;1.70;1.30;;;5.50;99.90;;;;;;4939567;28;20043;-48
2022/01/30 08:08:45;;;;;;;0.95;0.95;;;5.50;99.90;;;;;;4940476;28;20038;-49
2022/01/30 08:11:12;;;;;;;1.50;1.40;;;5.50;99.90;;;;;;4942677;28;20469;-48
2022/01/30 08:13:37;;;;;;;2.13;1.30;;;5.50;99.90;;;;;;4940614;28;20035;-49
2022/01/30 08:16:03;;;;;;;1.73;1.30;;;5.50;99.90;;;;;;4943345;28;20041;-49
2022/01/30 08:18:29;;;;;;;2.03;1.20;;;5.40;99.90;;;;;;4942446;28;20118;-49
2022/01/30 08:20:55;;;;;;;3.75;1.35;;;5.50;99.90;;;;;;4939352;28;20181;-49
2022/01/30 08:23:23;;;;;;;2.42;1.30;;;5.40;99.90;;;;;;4943005;28;20492;-49
2022/01/30 08:25:49;;;;;;;2.88;1.30;;;5.40;99.90;;;;;;4938231;28;20038;-49
2022/01/30 08:28:15;;;;;;;2.25;1.27;;;5.40;99.90;;;;;;4941827;28;20413;-48
2022/01/30 08:30:40;;;;;;;2.85;1.30;;;5.40;99.90;;;;;;4939416;28;20611;-48
2022/01/30 08:33:06;;;;;;;1.88;1.40;;;5.50;99.90;;;;;;4935922;28;20494;-48
2022/01/30 08:35:32;;;;;;;7.40;1.55;;;5.50;99.90;;;;;;4941592;28;20035;-48
2022/01/30 08:37:59;;;;;;;5.47;1.48;;;5.50;99.90;;;;;;4940402;28;20396;-48
2022/01/30 08:40:25;;;;;;;1.38;1.27;;;5.60;99.90;;;;;;4939517;28;20034;-49
2022/01/30 08:42:51;;;;;;;4.32;1.70;;;5.70;99.90;;;;;;4940933;28;20031;-49
2022/01/30 08:45:19;;;;;;;1.60;1.40;;;5.70;99.90;;;;;;4939241;28;20031;-49
2022/01/30 08:47:47;;;;;;;4.82;1.85;;;5.70;99.90;;;;;;4933617;28;20058;-51
2022/01/30 08:50:14;;;;;;;1.40;1.27;;;5.70;99.90;;;;;;4941225;28;20146;-50
2022/01/30 08:52:42;;;;;;;2.28;1.30;;;5.60;99.90;;;;;;4940333;28;20046;-49
2022/01/30 08:55:08;;;;;;;9.88;1.65;;;5.60;99.90;;;;;;4945171;28;20059;-49
2022/01/30 08:57:34;;;;;;;4.47;2.22;;;5.70;99.90;;;;;;4939052;28;20042;-48
2022/01/30 09:00:00;;;;;;;7.65;2.13;;;5.80;99.90;;;;;;4940975;28;20040;-49
2022/01/30 09:02:26;;;;;;;3.35;1.70;;;5.90;99.90;;;;;;4940710;28;20028;-48
2022/01/30 09:04:52;;;;;;;4.93;1.83;;;5.90;99.90;;;;;;4941016;28;20381;-48
2022/01/30 09:07:19;;;;;;;2.83;1.60;;;6.00;99.90;;;;;;4942365;28;20031;-49
2022/01/30 09:09:45;;;;;;;6.28;1.90;;;6.10;99.90;;;;;;4938498;28;20035;-49
2022/01/30 09:12:12;;;;;;;4.93;2.15;;;6.10;99.90;;;;;;4939210;28;20031;-49
2022/01/30 09:14:39;;;;;;;3.67;1.60;;;6.10;99.90;;;;;;4940596;28;20074;-49
2022/01/30 09:17:13;;;;;;;1.93;1.50;;;6.10;99.90;;;;;;4937106;28;20041;-48
2022/01/30 09:19:40;;;;;;;6.72;2.20;;;6.20;99.90;;;;;;4935948;28;20282;-49
2022/01/30 09:22:07;;;;;;;5.63;1.80;;;6.10;99.90;;;;;;4938137;28;20118;-49
2022/01/30 09:24:32;;;;;;;3.78;2.78;;;6.10;99.90;;;;;;4936829;28;20162;-49
2022/01/30 09:26:58;;;;;;;6.00;2.28;;;6.10;99.90;;;;;;4937093;28;20039;-51
2022/01/30 09:29:23;;;;;;;5.63;2.35;;;6.10;99.90;;;;;;4936715;28;20051;-49
2022/01/30 09:31:49;;;;;;;3.88;2.08;;;6.10;99.90;;;;;;4935258;28;20139;-49
2022/01/30 09:34:15;;;;;;;2.53;2.00;;;6.10;99.90;;;;;;4937996;28;20055;-48
2022/01/30 09:36:40;;;;;;;4.55;2.03;;;6.20;99.90;;;;;;4938787;28;20538;-48
2022/01/30 09:39:06;;;;;;;4.57;1.85;;;6.20;99.90;;;;;;4937152;28;20057;-52
2022/01/30 09:41:34;;;;;;;8.27;2.13;;;6.10;99.90;;;;;;4942973;28;20113;-49
2022/01/30 09:44:01;;;;;;;4.05;2.15;;;6.10;99.90;;;;;;4935854;28;20036;-49
2022/01/30 09:46:29;;;;;;;4.43;2.15;;;6.10;99.90;;;;;;4940498;28;20074;-49
2022/01/30 09:48:55;;;;;;;4.50;1.95;;;6.10;99.90;;;;;;4938761;28;20043;-49
2022/01/30 09:51:21;;;;;;;5.13;2.20;;;6.20;99.90;;;;;;4938366;28;20039;-49
2022/01/30 09:53:47;;;;;;;3.67;2.17;;;6.20;99.90;;;;;;4936457;28;20449;-49
2022/01/30 09:56:13;;;;;;;5.15;2.42;;;6.30;99.90;;;;;;4937733;28;20015;-48
2022/01/30 09:58:39;;;;;;;6.93;1.95;;;6.30;99.90;;;;;;4931523;28;20054;-49
2022/01/30 10:01:04;;;;;;;3.85;1.88;;;6.30;99.90;;;;;;4944233;28;20030;-48
2022/01/30 10:03:30;;;;;;;3.33;2.00;;;6.40;99.90;;;;;;4938540;28;20873;-48
2022/01/30 10:06:15;;;;;;;5.22;2.70;;;6.40;99.90;;;;;;4940302;28;20688;-48
2022/01/30 10:08:46;;;;;;;7.10;2.67;;;6.40;99.90;;;;;;4935283;28;20023;-48
2022/01/30 10:11:35;;;;;;;10.48;2.25;;;6.30;99.90;;;;;;4939422;28;20069;-48
2022/01/30 10:14:08;;;;;;;8.88;2.90;;;6.20;99.90;;;;;;4937653;28;20028;-49
2022/01/30 10:16:49;;;;;;;8.52;2.35;;;6.10;99.90;;;;;;4940315;28;20121;-48
2022/01/30 10:19:21;;;;;;;3.50;2.00;;;6.00;99.90;;;;;;4934019;28;20058;-48
2022/01/30 10:21:48;;;;;;;5.75;2.15;;;6.00;99.90;;;;;;4937088;28;20035;-49
2022/01/30 10:24:22;;;;;;;5.72;1.85;;;6.10;99.90;;;;;;4941377;28;20153;-49
2022/01/30 10:26:48;;;;;;;3.92;1.85;;;6.20;99.90;;;;;;4935423;28;20054;-48
2022/01/30 10:29:27;;;;;;;8.93;2.85;;;6.10;99.90;;;;;;4940732;28;20035;-48
2022/01/30 10:32:10;;;;;;;7.05;2.88;;;6.20;99.90;;;;;;4948992;28;20067;-48
2022/01/30 10:34:37;;;;;;;7.45;3.28;;;6.10;99.90;;;;;;4943885;28;20070;-48
2022/01/30 10:37:13;;;;;;;7.88;2.20;;;6.00;99.90;;;;;;4941012;28;20602;-48
2022/01/30 10:40:01;;;;;;;4.82;2.33;;;6.00;99.90;;;;;;4944334;28;20518;-49
2022/01/30 10:42:33;;;;;;;;;;;6.00;99.90;;;;;;4940373;28;20031;-50
2022/01/30 10:44:59;;;;;;;5.43;1.90;;;6.10;99.90;;;;;;4942808;28;19971;-49
2022/01/30 10:47:24;;;;;;;3.75;1.80;;;6.10;99.90;;;;;;4939681;28;20425;-49
2022/01/30 10:49:50;;;;;;;2.15;1.58;;;6.20;99.90;;;;;;4939355;28;20111;-49
2022/01/30 10:52:16;;;;;;;6.35;2.55;;;6.10;99.90;;;;;;4941043;28;20027;-49
2022/01/30 10:54:42;;;;;;;5.35;2.63;;;6.10;99.90;;;;;;4937402;28;20071;-49
2022/01/30 10:57:10;;;;;;;7.93;2.53;;;6.20;99.90;;;;;;4944681;28;20477;-50
2022/01/30 10:59:42;;;;;;;4.38;2.03;;;6.20;99.90;;;;;;4936779;28;20110;-48
2022/01/30 11:02:16;;;;;;;4.78;1.83;;;6.30;99.90;;;;;;4937328;28;20121;-49
2022/01/30 11:04:44;;;;;;;4.45;2.03;;;6.50;99.90;;;;;;4943071;28;20031;-49
2022/01/30 11:07:10;;;;;;;3.40;2.08;;;6.40;99.90;;;;;;4945267;28;20031;-49
2022/01/30 11:09:43;;;;;;;5.60;1.95;;;6.40;99.90;;;;;;4942077;28;20027;-49
2022/01/30 11:12:15;;;;;;;4.75;1.63;;;6.40;99.90;;;;;;4942865;28;20741;-49
2022/01/30 11:17:16;;;;;;;5.30;2.28;;;6.40;99.90;;;;;;4946776;28;20031;-49
2022/01/30 11:19:48;;;;;;;3.15;1.45;;;6.30;99.90;;;;;;4943681;28;20055;-48
2022/01/30 11:22:16;;;;;;;6.93;2.33;;;6.40;99.90;;;;;;4945364;28;20031;-48
2022/01/30 11:24:48;;;;;;;6.88;2.75;;;6.40;99.90;;;;;;4945166;28;20094;-50
2022/01/30 11:27:17;;;;;;;2.92;1.83;;;6.50;99.90;;;;;;4942825;28;20042;-49
2022/01/30 11:29:43;;;;;;;4.47;1.88;;;6.50;99.90;;;;;;4941720;29;20039;-48
2022/01/30 11:32:09;;;;;;;2.25;1.33;;;6.50;99.90;;;;;;4943355;28;20039;-48
2022/01/30 11:34:36;;;;;;;11.50;1.90;;;6.50;99.90;;;;;;4943146;29;20114;-48
2022/01/30 11:37:03;;;;;;;3.40;1.55;;;6.60;99.90;;;;;;4944178;29;20035;-48
2022/01/30 11:39:29;;;;;;;4.68;2.17;;;6.70;99.90;;;;;;4949682;29;20170;-48
2022/01/30 11:42:05;;;;;;;4.45;1.92;;;6.80;99.90;;;;;;4944799;28;20556;-49
2022/01/30 11:44:30;;;;;;;2.35;1.70;;;6.80;99.90;;;;;;4947013;29;20133;-48
2022/01/30 11:46:56;;;;;;;3.53;1.50;;;6.80;99.90;;;;;;4944693;29;20070;-49
2022/01/30 11:49:24;;;;;;;4.07;1.95;;;6.80;99.60;;;;;;4945901;28;20059;-49
2022/01/30 11:51:54;;;;;;;6.33;1.77;;;6.70;99.90;;;;;;4946984;28;20035;-49
2022/01/30 11:54:35;;;;;;;7.95;2.10;;;6.80;98.40;;;;;;4943369;28;20038;-49
2022/01/30 11:57:01;;;;;;;4.32;1.77;;;6.70;95.50;;;;;;4946938;29;20034;-49
2022/01/30 11:59:37;;;;;;;2.30;1.83;;;6.70;96.50;;;;;;4944145;28;20491;-49
2022/01/30 12:02:30;;;;;;;2.90;1.33;;;6.70;89.40;;;;;;4948341;28;20031;-49
2022/01/30 12:05:09;;;;;;;6.32;1.80;;;6.70;95.30;;;;;;4946737;28;20445;-48
2022/01/30 12:07:38;;;;;;;4.97;2.00;;;6.70;92.00;;;;;;4945871;28;20448;-49
2022/01/30 12:10:19;;;;;;;4.88;1.58;;;6.70;90.20;;;;;;4945491;29;20086;-51
2022/01/30 12:13:02;;;;;;;7.13;1.77;;;6.60;94.00;;;;;;4945175;29;20031;-49
2022/01/30 12:15:45;;;;;;;4.63;1.60;;;6.80;97.90;;;;;;4942586;29;20039;-49
2022/01/30 12:18:17;;;;;;;6.18;2.00;;;6.80;95.40;;;;;;4947724;28;20042;-49
2022/01/30 12:21:01;;;;;;;4.25;1.92;;;6.80;96.00;;;;;;4950685;28;20171;-51
2022/01/30 12:23:29;;;;;;;4.40;1.95;;;6.90;91.90;;;;;;4950055;29;20039;-49
2022/01/30 12:26:04;;;;;;;3.15;1.65;;;6.90;96.50;;;;;;4950108;28;20027;-49
2022/01/30 12:28:45;;;;;;;4.63;2.05;;;7.00;98.50;;;;;;4942886;29;20036;-51
2022/01/30 12:31:35;;;;;;;4.50;1.75;;;7.00;98.50;;;;;;4945894;28;20046;-51
2022/01/30 12:34:09;;;;;;;6.97;1.75;;;6.90;99.60;;;;;;4942853;29;20161;-50
2022/01/30 12:36:37;;;;;;;2.42;1.50;;;6.80;99.90;;;;;;4943544;28;20046;-49
2022/01/30 12:39:24;;;;;;;5.20;1.92;;;6.80;99.90;;;;;;4939945;29;20039;-50
2022/01/30 12:41:51;;;;;;;6.43;2.00;;;6.80;99.90;;;;;;4942533;29;20045;-49
2022/01/30 12:44:20;;;;;;;4.18;1.77;;;6.80;99.90;;;;;;4942844;28;20042;-49
2022/01/30 12:46:48;;;;;;;6.05;2.20;;;6.70;99.80;;;;;;4944221;28;20027;-49
2022/01/30 12:49:19;;;;;;;3.83;1.80;;;6.70;99.90;;;;;;4941466;28;20051;-49
2022/01/30 12:51:50;;;;;;;3.80;1.80;;;6.60;99.90;;;;;;4942027;28;20038;-49
2022/01/30 12:54:19;;;;;;;7.28;2.55;;;6.60;99.90;;;;;;4943196;29;20039;-49
2022/01/30 12:56:46;;;;;;;3.97;1.85;;;6.50;99.90;;;;;;4942797;29;20066;-49
2022/01/30 12:59:13;;;;;;;2.33;1.95;;;6.40;99.90;;;;;;4943088;28;20031;-49
2022/01/30 13:02:06;;;;;;;5.53;2.67;;;6.50;99.90;;;;;;4944160;28;20086;-49
2022/01/30 13:04:32;;;;;;;4.68;1.83;;;6.40;99.90;;;;;;4942133;28;20146;-48
2022/01/30 13:06:58;;;;;;;2.42;1.92;;;6.50;99.90;;;;;;4947040;28;20122;-48
2022/01/30 13:09:28;;;;;;;1.60;1.55;;;6.50;99.90;;;;;;4944495;29;20110;-48
2022/01/30 13:11:55;;;;;;;5.03;2.03;;;6.70;94.90;;;;;;4943729;29;20031;-49
2022/01/30 13:14:22;;;;;;;3.78;2.10;;;6.70;99.90;;;;;;4946502;28;20085;-49
2022/01/30 13:16:51;;;;;;;3.50;2.05;;;6.60;99.30;;;;;;4943424;29;20030;-49
2022/01/30 13:19:34;;;;;;;3.70;2.40;;;6.70;99.90;;;;;;4942123;29;20625;-49
2022/01/30 13:22:03;;;;;;;3.30;1.48;;;6.90;99.20;;;;;;4944062;29;20071;-50
2022/01/30 13:24:29;;;;;;;;;;;6.80;96.70;;;;;;4948776;28;20090;-49
2022/01/30 13:27:05;;;;;;;4.32;1.70;;;6.90;99.90;;;;;;4950282;28;19915;-49
2022/01/30 13:29:34;;;;;;;4.07;1.75;;;6.90;98.80;;;;;;4947086;28;20594;-50
2022/01/30 13:32:00;;;;;;;;;;;6.90;88.80;;;;;;4943457;28;20039;-49
2022/01/30 13:34:32;;;;;;;5.70;1.70;;;6.80;77.60;;;;;;4944788;28;20548;-50
2022/01/30 13:37:10;;;;;;;4.82;1.88;;;6.90;84.90;;;;;;4946285;28;20035;-50
2022/01/30 13:39:45;;;;;;;6.22;2.13;;;7.00;79.30;;;;;;4946413;28;20489;-49
2022/01/30 13:45:07;;;;;;;5.80;1.98;;;6.90;76.80;;;;;;4938854;28;20031;-51
2022/01/30 13:47:34;;;;;;;4.70;1.70;;;7.00;82.10;;;;;;4946441;28;20061;-50
2022/01/30 13:50:00;;;;;;;7.63;2.13;;;7.00;88.40;;;;;;4945128;28;20375;-50
2022/01/30 13:52:31;;;;;;;5.03;1.88;;;7.00;88.90;;;;;;4940788;28;20031;-49
2022/01/30 13:54:59;;;;;;;4.85;2.25;;;7.10;78.00;;;;;;4946963;28;20032;-49
2022/01/30 13:57:33;;;;;;;7.72;1.75;;;7.00;80.40;;;;;;4952222;28;20062;-48
2022/01/30 14:00:27;;;;;;;4.97;1.73;;;6.90;77.30;;;;;;4949832;28;20137;-48
2022/01/30 14:03:00;;;;;;;4.43;1.67;;;6.80;83.40;;;;;;4950005;29;20046;-49
2022/01/30 14:05:37;;;;;;;3.97;1.42;;;6.70;81.50;;;;;;4949768;29;20027;-49
2022/01/30 14:08:10;;;;;;;2.03;1.42;;;6.60;84.80;;;;;;4948384;29;20118;-49
2022/01/30 14:10:36;;;;;;;3.63;1.40;;;6.50;84.50;;;;;;4953971;28;20053;-49
2022/01/30 14:13:11;;;;;;;4.47;1.80;;;6.50;84.10;;;;;;4949337;28;20492;-49